Search for airport 
image banner adimage banner adimage banner ad
image banner ad

4CL1 - Lyon

Located in Rancho Santa Margarita, United States

ICAO - 4CL1, IATA -

Data provided by Airmate  

General information

Coordinates: N33°36'46" W117°35'29"
Elevation is 898 feet MSL.
Magnetic variation is 14° East
View others Airports in California

Operational data

Special qualification required
Current time UTC:
Current local time:
METAR: KSNA 240753Z AUTO 25003KT 10SM CLR 19/14 A3000 RMK AO2 SLP158 T01890144 402610183
TAF: KSNA 240632Z 2407/2506 VRB04KT P6SM FEW011 FM241000 VRB04KT P6SM BKN012 FM241600 VRB05KT P6SM SCT014 FM242100 22009KT P6SM SCT100 FM250300 VRB04KT P6SM SCT014
View NOTAMs / SUP AIP / TFR affecting this airport [VIEW]
Communications frequencies: [VIEW]

Runways:

Airport contact information

Address: Rancho Santa Margarita United States

Satellite view of 4CL1